sensor_id;sensor_type;location;lat;lon;timestamp;P1;durP1;ratioP1;P2;durP2;ratioP2
47966;SDS011;33733;52.456;13.620;2023-06-24T00:00:22;6.65;;;2.47;;
47966;SDS011;33733;52.456;13.620;2023-06-24T00:02:49;6.25;;;3.00;;
47966;SDS011;33733;52.456;13.620;2023-06-24T00:05:17;10.77;;;4.15;;
47966;SDS011;33733;52.456;13.620;2023-06-24T00:07:44;7.68;;;3.75;;
47966;SDS011;33733;52.456;13.620;2023-06-24T00:10:13;6.25;;;2.70;;
47966;SDS011;33733;52.456;13.620;2023-06-24T00:12:42;7.78;;;4.03;;
47966;SDS011;33733;52.456;13.620;2023-06-24T00:15:09;5.28;;;2.13;;
47966;SDS011;33733;52.456;13.620;2023-06-24T00:17:36;6.22;;;2.65;;
47966;SDS011;33733;52.456;13.620;2023-06-24T00:20:04;6.95;;;2.88;;
47966;SDS011;33733;52.456;13.620;2023-06-24T00:22:33;6.13;;;3.85;;
47966;SDS011;33733;52.456;13.620;2023-06-24T00:25:00;6.20;;;3.88;;
47966;SDS011;33733;52.456;13.620;2023-06-24T00:27:27;5.43;;;1.98;;
47966;SDS011;33733;52.456;13.620;2023-06-24T00:29:54;5.32;;;2.10;;
47966;SDS011;33733;52.456;13.620;2023-06-24T00:32:21;6.60;;;4.05;;
47966;SDS011;33733;52.456;13.620;2023-06-24T00:34:48;8.13;;;4.35;;
47966;SDS011;33733;52.456;13.620;2023-06-24T00:37:17;7.63;;;4.78;;
47966;SDS011;33733;52.456;13.620;2023-06-24T00:39:44;5.95;;;2.38;;
47966;SDS011;33733;52.456;13.620;2023-06-24T00:42:10;6.70;;;3.60;;
47966;SDS011;33733;52.456;13.620;2023-06-24T00:44:37;7.13;;;3.72;;
47966;SDS011;33733;52.456;13.620;2023-06-24T00:47:05;6.20;;;3.60;;
47966;SDS011;33733;52.456;13.620;2023-06-24T00:49:34;7.53;;;3.78;;
47966;SDS011;33733;52.456;13.620;2023-06-24T00:52:03;5.95;;;3.50;;
47966;SDS011;33733;52.456;13.620;2023-06-24T00:54:31;5.95;;;2.53;;
47966;SDS011;33733;52.456;13.620;2023-06-24T00:56:58;8.40;;;3.72;;
47966;SDS011;33733;52.456;13.620;2023-06-24T00:59:26;5.50;;;2.45;;
47966;SDS011;33733;52.456;13.620;2023-06-24T01:01:56;7.65;;;4.13;;
47966;SDS011;33733;52.456;13.620;2023-06-24T01:04:23;7.95;;;3.90;;
47966;SDS011;33733;52.456;13.620;2023-06-24T01:06:52;6.65;;;2.92;;
47966;SDS011;33733;52.456;13.620;2023-06-24T01:09:19;7.63;;;4.55;;
47966;SDS011;33733;52.456;13.620;2023-06-24T01:11:46;8.48;;;4.75;;
47966;SDS011;33733;52.456;13.620;2023-06-24T01:14:14;6.97;;;2.50;;
47966;SDS011;33733;52.456;13.620;2023-06-24T01:28:34;8.85;;;5.35;;
47966;SDS011;33733;52.456;13.620;2023-06-24T01:34:18;7.50;;;3.85;;
47966;SDS011;33733;52.456;13.620;2023-06-24T01:36:50;8.32;;;3.53;;
47966;SDS011;33733;52.456;13.620;2023-06-24T01:39:52;8.48;;;3.75;;
47966;SDS011;33733;52.456;13.620;2023-06-24T01:42:24;7.95;;;5.00;;
47966;SDS011;33733;52.456;13.620;2023-06-24T01:44:50;8.25;;;4.93;;
47966;SDS011;33733;52.456;13.620;2023-06-24T01:47:18;7.13;;;3.45;;
47966;SDS011;33733;52.456;13.620;2023-06-24T01:52:13;7.60;;;3.70;;
47966;SDS011;33733;52.456;13.620;2023-06-24T01:54:41;7.38;;;3.58;;
47966;SDS011;33733;52.456;13.620;2023-06-24T01:57:08;9.48;;;5.22;;
47966;SDS011;33733;52.456;13.620;2023-06-24T01:59:37;9.35;;;5.00;;
47966;SDS011;33733;52.456;13.620;2023-06-24T02:02:04;9.25;;;4.65;;
47966;SDS011;33733;52.456;13.620;2023-06-24T02:04:32;7.95;;;4.93;;
47966;SDS011;33733;52.456;13.620;2023-06-24T02:07:01;6.63;;;3.40;;
47966;SDS011;33733;52.456;13.620;2023-06-24T02:09:29;8.50;;;4.35;;
47966;SDS011;33733;52.456;13.620;2023-06-24T02:11:57;8.85;;;5.25;;
47966;SDS011;33733;52.456;13.620;2023-06-24T02:14:25;8.35;;;3.15;;
47966;SDS011;33733;52.456;13.620;2023-06-24T02:16:53;8.57;;;5.15;;
47966;SDS011;33733;52.456;13.620;2023-06-24T02:19:24;8.90;;;3.03;;
47966;SDS011;33733;52.456;13.620;2023-06-24T02:21:54;6.85;;;2.97;;
47966;SDS011;33733;52.456;13.620;2023-06-24T02:24:22;7.70;;;4.28;;
47966;SDS011;33733;52.456;13.620;2023-06-24T02:26:50;7.13;;;3.28;;
47966;SDS011;33733;52.456;13.620;2023-06-24T02:29:17;8.77;;;5.88;;
47966;SDS011;33733;52.456;13.620;2023-06-24T02:31:44;9.15;;;5.35;;
47966;SDS011;33733;52.456;13.620;2023-06-24T02:34:11;8.15;;;3.85;;
47966;SDS011;33733;52.456;13.620;2023-06-24T02:36:38;7.68;;;4.05;;
47966;SDS011;33733;52.456;13.620;2023-06-24T02:39:05;7.93;;;3.78;;
47966;SDS011;33733;52.456;13.620;2023-06-24T02:41:32;7.25;;;4.00;;
47966;SDS011;33733;52.456;13.620;2023-06-24T02:43:59;8.90;;;5.32;;
47966;SDS011;33733;52.456;13.620;2023-06-24T02:46:25;7.05;;;3.15;;
47966;SDS011;33733;52.456;13.620;2023-06-24T02:48:56;8.02;;;4.28;;
47966;SDS011;33733;52.456;13.620;2023-06-24T02:51:24;8.32;;;3.92;;
47966;SDS011;33733;52.456;13.620;2023-06-24T02:53:51;7.88;;;4.70;;
47966;SDS011;33733;52.456;13.620;2023-06-24T02:56:25;9.30;;;5.03;;
47966;SDS011;33733;52.456;13.620;2023-06-24T02:58:52;7.60;;;4.97;;
47966;SDS011;33733;52.456;13.620;2023-06-24T03:01:24;7.50;;;3.55;;
47966;SDS011;33733;52.456;13.620;2023-06-24T03:03:54;8.27;;;4.72;;
47966;SDS011;33733;52.456;13.620;2023-06-24T03:06:21;7.65;;;4.68;;
47966;SDS011;33733;52.456;13.620;2023-06-24T03:08:51;7.53;;;3.85;;
47966;SDS011;33733;52.456;13.620;2023-06-24T03:11:21;8.27;;;3.55;;
47966;SDS011;33733;52.456;13.620;2023-06-24T03:13:48;7.70;;;4.05;;
47966;SDS011;33733;52.456;13.620;2023-06-24T03:16:25;8.70;;;3.55;;
47966;SDS011;33733;52.456;13.620;2023-06-24T03:19:00;10.35;;;4.55;;
47966;SDS011;33733;52.456;13.620;2023-06-24T03:21:27;7.25;;;3.75;;
47966;SDS011;33733;52.456;13.620;2023-06-24T03:24:02;8.10;;;3.60;;
47966;SDS011;33733;52.456;13.620;2023-06-24T03:26:35;7.35;;;4.50;;
47966;SDS011;33733;52.456;13.620;2023-06-24T03:29:05;6.95;;;4.18;;
47966;SDS011;33733;52.456;13.620;2023-06-24T03:34:02;6.43;;;2.97;;
47966;SDS011;33733;52.456;13.620;2023-06-24T03:36:28;8.73;;;4.15;;
47966;SDS011;33733;52.456;13.620;2023-06-24T03:38:55;8.25;;;4.18;;
47966;SDS011;33733;52.456;13.620;2023-06-24T03:43:52;6.80;;;4.28;;
47966;SDS011;33733;52.456;13.620;2023-06-24T03:46:19;6.40;;;3.35;;
47966;SDS011;33733;52.456;13.620;2023-06-24T03:48:46;7.32;;;4.30;;
47966;SDS011;33733;52.456;13.620;2023-06-24T03:51:13;7.65;;;4.70;;
47966;SDS011;33733;52.456;13.620;2023-06-24T03:53:40;8.43;;;4.22;;
47966;SDS011;33733;52.456;13.620;2023-06-24T03:56:06;6.95;;;4.18;;
47966;SDS011;33733;52.456;13.620;2023-06-24T03:58:33;6.45;;;2.80;;
47966;SDS011;33733;52.456;13.620;2023-06-24T04:01:01;7.10;;;3.13;;
47966;SDS011;33733;52.456;13.620;2023-06-24T04:03:28;7.30;;;3.00;;
47966;SDS011;33733;52.456;13.620;2023-06-24T04:05:55;7.82;;;4.72;;
47966;SDS011;33733;52.456;13.620;2023-06-24T04:08:22;5.25;;;2.38;;
47966;SDS011;33733;52.456;13.620;2023-06-24T04:10:51;7.95;;;4.22;;
47966;SDS011;33733;52.456;13.620;2023-06-24T04:13:18;7.22;;;2.95;;
47966;SDS011;33733;52.456;13.620;2023-06-24T04:15:45;8.05;;;4.70;;
47966;SDS011;33733;52.456;13.620;2023-06-24T04:18:11;6.85;;;2.97;;
47966;SDS011;33733;52.456;13.620;2023-06-24T04:20:38;7.57;;;4.63;;
47966;SDS011;33733;52.456;13.620;2023-06-24T04:23:05;9.25;;;3.40;;
47966;SDS011;33733;52.456;13.620;2023-06-24T04:25:37;7.07;;;4.22;;
47966;SDS011;33733;52.456;13.620;2023-06-24T04:28:03;7.18;;;4.05;;
47966;SDS011;33733;52.456;13.620;2023-06-24T04:30:31;7.40;;;4.07;;
47966;SDS011;33733;52.456;13.620;2023-06-24T04:32:58;8.02;;;4.80;;
47966;SDS011;33733;52.456;13.620;2023-06-24T04:35:25;7.00;;;3.00;;
47966;SDS011;33733;52.456;13.620;2023-06-24T04:37:52;8.02;;;4.60;;
47966;SDS011;33733;52.456;13.620;2023-06-24T04:40:19;8.98;;;4.35;;
47966;SDS011;33733;52.456;13.620;2023-06-24T04:42:45;8.75;;;4.68;;
47966;SDS011;33733;52.456;13.620;2023-06-24T04:45:12;5.70;;;2.55;;
47966;SDS011;33733;52.456;13.620;2023-06-24T04:47:38;8.90;;;4.20;;
47966;SDS011;33733;52.456;13.620;2023-06-24T04:50:05;10.02;;;5.15;;
47966;SDS011;33733;52.456;13.620;2023-06-24T04:52:35;6.15;;;2.70;;
47966;SDS011;33733;52.456;13.620;2023-06-24T04:55:02;7.82;;;3.40;;
47966;SDS011;33733;52.456;13.620;2023-06-24T04:57:29;7.13;;;3.45;;
47966;SDS011;33733;52.456;13.620;2023-06-24T04:59:57;6.43;;;3.08;;
47966;SDS011;33733;52.456;13.620;2023-06-24T05:02:24;7.00;;;2.75;;
47966;SDS011;33733;52.456;13.620;2023-06-24T05:04:51;7.68;;;2.45;;
47966;SDS011;33733;52.456;13.620;2023-06-24T05:07:18;7.38;;;4.55;;
47966;SDS011;33733;52.456;13.620;2023-06-24T05:09:48;6.15;;;2.78;;
47966;SDS011;33733;52.456;13.620;2023-06-24T05:12:15;8.43;;;4.45;;
47966;SDS011;33733;52.456;13.620;2023-06-24T05:14:42;6.97;;;3.25;;
47966;SDS011;33733;52.456;13.620;2023-06-24T05:17:09;6.93;;;2.97;;
47966;SDS011;33733;52.456;13.620;2023-06-24T05:19:35;7.35;;;3.72;;
47966;SDS011;33733;52.456;13.620;2023-06-24T05:22:02;10.63;;;3.53;;
47966;SDS011;33733;52.456;13.620;2023-06-24T05:24:29;6.97;;;2.72;;
47966;SDS011;33733;52.456;13.620;2023-06-24T05:26:56;7.82;;;2.97;;
47966;SDS011;33733;52.456;13.620;2023-06-24T05:29:22;7.10;;;3.95;;
47966;SDS011;33733;52.456;13.620;2023-06-24T05:31:49;7.70;;;3.20;;
47966;SDS011;33733;52.456;13.620;2023-06-24T05:34:16;8.20;;;3.67;;
47966;SDS011;33733;52.456;13.620;2023-06-24T05:36:42;9.13;;;3.75;;
47966;SDS011;33733;52.456;13.620;2023-06-24T05:39:09;7.97;;;3.30;;
47966;SDS011;33733;52.456;13.620;2023-06-24T05:41:37;6.85;;;3.25;;
47966;SDS011;33733;52.456;13.620;2023-06-24T05:44:07;9.20;;;4.65;;
47966;SDS011;33733;52.456;13.620;2023-06-24T05:46:35;7.43;;;3.45;;
47966;SDS011;33733;52.456;13.620;2023-06-24T05:49:06;7.53;;;3.30;;
47966;SDS011;33733;52.456;13.620;2023-06-24T05:51:35;10.18;;;3.55;;
47966;SDS011;33733;52.456;13.620;2023-06-24T05:54:05;5.93;;;2.63;;
47966;SDS011;33733;52.456;13.620;2023-06-24T05:56:33;7.47;;;4.15;;
47966;SDS011;33733;52.456;13.620;2023-06-24T05:59:00;8.25;;;4.13;;
47966;SDS011;33733;52.456;13.620;2023-06-24T06:01:27;8.15;;;3.90;;
47966;SDS011;33733;52.456;13.620;2023-06-24T06:03:54;7.82;;;4.22;;
47966;SDS011;33733;52.456;13.620;2023-06-24T06:06:20;8.52;;;2.92;;
47966;SDS011;33733;52.456;13.620;2023-06-24T06:08:50;8.05;;;4.22;;
47966;SDS011;33733;52.456;13.620;2023-06-24T06:11:16;8.70;;;4.35;;
47966;SDS011;33733;52.456;13.620;2023-06-24T06:13:43;8.23;;;3.47;;
47966;SDS011;33733;52.456;13.620;2023-06-24T06:16:11;7.55;;;3.78;;
47966;SDS011;33733;52.456;13.620;2023-06-24T06:18:41;9.73;;;3.50;;
47966;SDS011;33733;52.456;13.620;2023-06-24T06:21:07;6.32;;;3.30;;
47966;SDS011;33733;52.456;13.620;2023-06-24T06:23:34;9.30;;;4.75;;
47966;SDS011;33733;52.456;13.620;2023-06-24T06:26:00;6.95;;;3.13;;
47966;SDS011;33733;52.456;13.620;2023-06-24T06:28:33;7.22;;;2.88;;
47966;SDS011;33733;52.456;13.620;2023-06-24T06:31:00;8.25;;;4.63;;
47966;SDS011;33733;52.456;13.620;2023-06-24T06:33:27;8.43;;;2.63;;
47966;SDS011;33733;52.456;13.620;2023-06-24T06:35:54;6.60;;;2.05;;
47966;SDS011;33733;52.456;13.620;2023-06-24T06:38:21;6.13;;;3.28;;
47966;SDS011;33733;52.456;13.620;2023-06-24T06:40:47;7.20;;;3.47;;
47966;SDS011;33733;52.456;13.620;2023-06-24T06:43:37;5.57;;;3.05;;
47966;SDS011;33733;52.456;13.620;2023-06-24T06:46:04;8.20;;;2.60;;
47966;SDS011;33733;52.456;13.620;2023-06-24T06:48:31;7.65;;;3.83;;
47966;SDS011;33733;52.456;13.620;2023-06-24T06:50:57;7.25;;;3.00;;
47966;SDS011;33733;52.456;13.620;2023-06-24T06:53:24;6.32;;;2.55;;
47966;SDS011;33733;52.456;13.620;2023-06-24T06:55:51;10.02;;;2.50;;
47966;SDS011;33733;52.456;13.620;2023-06-24T06:58:18;6.22;;;3.10;;
47966;SDS011;33733;52.456;13.620;2023-06-24T07:00:44;8.80;;;3.50;;
47966;SDS011;33733;52.456;13.620;2023-06-24T07:03:11;6.63;;;2.78;;
47966;SDS011;33733;52.456;13.620;2023-06-24T07:05:38;7.00;;;2.72;;
47966;SDS011;33733;52.456;13.620;2023-06-24T07:08:05;5.80;;;3.33;;
47966;SDS011;33733;52.456;13.620;2023-06-24T07:10:32;7.00;;;3.47;;
47966;SDS011;33733;52.456;13.620;2023-06-24T07:12:59;6.88;;;3.45;;
47966;SDS011;33733;52.456;13.620;2023-06-24T07:15:26;6.55;;;3.22;;
47966;SDS011;33733;52.456;13.620;2023-06-24T07:17:53;7.35;;;3.60;;
47966;SDS011;33733;52.456;13.620;2023-06-24T07:20:20;5.57;;;2.20;;
47966;SDS011;33733;52.456;13.620;2023-06-24T07:22:48;6.22;;;2.50;;
47966;SDS011;33733;52.456;13.620;2023-06-24T07:25:14;8.00;;;2.80;;
47966;SDS011;33733;52.456;13.620;2023-06-24T07:27:41;6.55;;;3.25;;
47966;SDS011;33733;52.456;13.620;2023-06-24T07:30:08;7.00;;;3.20;;
47966;SDS011;33733;52.456;13.620;2023-06-24T07:32:35;6.32;;;2.70;;
47966;SDS011;33733;52.456;13.620;2023-06-24T07:35:01;6.20;;;2.42;;
47966;SDS011;33733;52.456;13.620;2023-06-24T07:37:28;5.20;;;1.75;;
47966;SDS011;33733;52.456;13.620;2023-06-24T07:39:55;5.15;;;2.10;;
47966;SDS011;33733;52.456;13.620;2023-06-24T07:42:21;7.40;;;3.55;;
47966;SDS011;33733;52.456;13.620;2023-06-24T07:44:48;6.50;;;3.22;;
47966;SDS011;33733;52.456;13.620;2023-06-24T07:47:16;7.65;;;2.40;;
47966;SDS011;33733;52.456;13.620;2023-06-24T07:49:43;7.50;;;2.15;;
47966;SDS011;33733;52.456;13.620;2023-06-24T07:52:10;6.70;;;3.00;;
47966;SDS011;33733;52.456;13.620;2023-06-24T07:54:37;6.53;;;3.78;;
47966;SDS011;33733;52.456;13.620;2023-06-24T07:57:03;5.60;;;2.35;;
47966;SDS011;33733;52.456;13.620;2023-06-24T07:59:30;5.30;;;1.63;;
47966;SDS011;33733;52.456;13.620;2023-06-24T08:01:56;5.85;;;3.15;;
47966;SDS011;33733;52.456;13.620;2023-06-24T08:04:23;6.43;;;2.42;;
47966;SDS011;33733;52.456;13.620;2023-06-24T08:06:50;8.70;;;3.20;;
47966;SDS011;33733;52.456;13.620;2023-06-24T08:09:17;4.82;;;2.58;;
47966;SDS011;33733;52.456;13.620;2023-06-24T08:11:43;5.15;;;1.88;;
47966;SDS011;33733;52.456;13.620;2023-06-24T08:14:10;5.32;;;3.08;;
47966;SDS011;33733;52.456;13.620;2023-06-24T08:16:37;11.93;;;2.00;;
47966;SDS011;33733;52.456;13.620;2023-06-24T08:19:03;5.20;;;2.78;;
47966;SDS011;33733;52.456;13.620;2023-06-24T08:21:30;4.47;;;1.65;;
47966;SDS011;33733;52.456;13.620;2023-06-24T08:23:56;4.22;;;1.52;;
47966;SDS011;33733;52.456;13.620;2023-06-24T08:26:23;4.50;;;2.42;;
47966;SDS011;33733;52.456;13.620;2023-06-24T08:28:50;4.95;;;2.38;;
47966;SDS011;33733;52.456;13.620;2023-06-24T08:31:16;5.70;;;2.92;;
47966;SDS011;33733;52.456;13.620;2023-06-24T08:33:44;4.70;;;1.50;;
47966;SDS011;33733;52.456;13.620;2023-06-24T08:36:13;5.80;;;1.90;;
47966;SDS011;33733;52.456;13.620;2023-06-24T08:38:40;5.68;;;2.80;;
47966;SDS011;33733;52.456;13.620;2023-06-24T08:41:07;5.30;;;2.50;;
47966;SDS011;33733;52.456;13.620;2023-06-24T08:43:33;4.22;;;1.35;;
47966;SDS011;33733;52.456;13.620;2023-06-24T08:46:00;6.25;;;3.13;;
47966;SDS011;33733;52.456;13.620;2023-06-24T08:48:27;5.25;;;2.67;;
47966;SDS011;33733;52.456;13.620;2023-06-24T08:50:56;4.57;;;1.63;;
47966;SDS011;33733;52.456;13.620;2023-06-24T08:53:24;7.78;;;1.50;;
47966;SDS011;33733;52.456;13.620;2023-06-24T08:55:53;4.45;;;1.42;;
47966;SDS011;33733;52.456;13.620;2023-06-24T08:58:20;3.35;;;1.02;;
47966;SDS011;33733;52.456;13.620;2023-06-24T09:00:47;3.85;;;1.30;;
47966;SDS011;33733;52.456;13.620;2023-06-24T09:03:14;4.82;;;2.50;;
47966;SDS011;33733;52.456;13.620;2023-06-24T09:05:41;5.70;;;2.78;;
47966;SDS011;33733;52.456;13.620;2023-06-24T09:08:07;7.68;;;1.50;;
47966;SDS011;33733;52.456;13.620;2023-06-24T09:10:35;5.30;;;1.60;;
47966;SDS011;33733;52.456;13.620;2023-06-24T09:13:03;5.18;;;2.67;;
47966;SDS011;33733;52.456;13.620;2023-06-24T09:18:02;4.90;;;1.38;;
47966;SDS011;33733;52.456;13.620;2023-06-24T09:20:30;3.53;;;1.05;;
47966;SDS011;33733;52.456;13.620;2023-06-24T09:23:01;3.55;;;1.15;;
47966;SDS011;33733;52.456;13.620;2023-06-24T09:25:29;4.55;;;1.52;;
47966;SDS011;33733;52.456;13.620;2023-06-24T09:27:59;4.30;;;1.00;;
47966;SDS011;33733;52.456;13.620;2023-06-24T09:30:27;5.18;;;2.22;;
47966;SDS011;33733;52.456;13.620;2023-06-24T09:32:54;5.63;;;1.60;;
47966;SDS011;33733;52.456;13.620;2023-06-24T09:35:21;4.18;;;1.65;;
47966;SDS011;33733;52.456;13.620;2023-06-24T09:37:52;5.97;;;3.33;;
47966;SDS011;33733;52.456;13.620;2023-06-24T09:40:20;6.00;;;2.72;;
47966;SDS011;33733;52.456;13.620;2023-06-24T09:42:54;5.80;;;2.90;;
47966;SDS011;33733;52.456;13.620;2023-06-24T09:45:23;4.38;;;1.65;;
47966;SDS011;33733;52.456;13.620;2023-06-24T09:47:51;4.85;;;1.63;;
47966;SDS011;33733;52.456;13.620;2023-06-24T09:50:22;5.15;;;2.65;;
47966;SDS011;33733;52.456;13.620;2023-06-24T09:52:56;5.18;;;2.97;;
47966;SDS011;33733;52.456;13.620;2023-06-24T09:55:24;5.85;;;2.90;;
47966;SDS011;33733;52.456;13.620;2023-06-24T09:57:57;4.88;;;1.65;;
47966;SDS011;33733;52.456;13.620;2023-06-24T10:00:24;3.88;;;1.02;;
47966;SDS011;33733;52.456;13.620;2023-06-24T10:02:51;4.20;;;1.55;;
47966;SDS011;33733;52.456;13.620;2023-06-24T10:05:27;5.07;;;3.15;;
47966;SDS011;33733;52.456;13.620;2023-06-24T10:07:54;4.40;;;2.33;;
47966;SDS011;33733;52.456;13.620;2023-06-24T10:10:21;5.13;;;2.30;;
47966;SDS011;33733;52.456;13.620;2023-06-24T10:12:47;6.32;;;2.63;;
47966;SDS011;33733;52.456;13.620;2023-06-24T10:15:14;4.30;;;1.45;;
47966;SDS011;33733;52.456;13.620;2023-06-24T10:17:50;4.63;;;2.42;;
47966;SDS011;33733;52.456;13.620;2023-06-24T10:20:29;4.32;;;1.70;;
47966;SDS011;33733;52.456;13.620;2023-06-24T10:23:07;3.88;;;1.25;;
47966;SDS011;33733;52.456;13.620;2023-06-24T10:25:37;5.15;;;2.72;;
47966;SDS011;33733;52.456;13.620;2023-06-24T10:28:04;5.68;;;2.85;;
47966;SDS011;33733;52.456;13.620;2023-06-24T10:30:31;5.65;;;3.20;;
47966;SDS011;33733;52.456;13.620;2023-06-24T10:33:12;4.95;;;3.40;;
47966;SDS011;33733;52.456;13.620;2023-06-24T10:35:41;5.70;;;2.88;;
47966;SDS011;33733;52.456;13.620;2023-06-24T10:38:10;3.58;;;1.35;;
47966;SDS011;33733;52.456;13.620;2023-06-24T10:40:39;4.93;;;2.47;;
47966;SDS011;33733;52.456;13.620;2023-06-24T10:45:58;4.80;;;2.70;;
47966;SDS011;33733;52.456;13.620;2023-06-24T10:48:25;5.70;;;1.58;;
47966;SDS011;33733;52.456;13.620;2023-06-24T10:50:52;4.78;;;2.60;;
47966;SDS011;33733;52.456;13.620;2023-06-24T10:53:19;5.10;;;2.55;;
47966;SDS011;33733;52.456;13.620;2023-06-24T10:55:46;3.42;;;1.05;;
47966;SDS011;33733;52.456;13.620;2023-06-24T10:58:15;4.65;;;2.47;;
47966;SDS011;33733;52.456;13.620;2023-06-24T11:00:42;4.22;;;1.02;;
47966;SDS011;33733;52.456;13.620;2023-06-24T11:03:14;3.85;;;1.45;;
47966;SDS011;33733;52.456;13.620;2023-06-24T11:05:42;4.30;;;1.40;;
47966;SDS011;33733;52.456;13.620;2023-06-24T11:08:11;4.97;;;1.60;;
47966;SDS011;33733;52.456;13.620;2023-06-24T11:10:41;3.17;;;1.13;;
47966;SDS011;33733;52.456;13.620;2023-06-24T11:13:12;6.13;;;3.22;;
47966;SDS011;33733;52.456;13.620;2023-06-24T11:15:39;4.63;;;1.25;;
47966;SDS011;33733;52.456;13.620;2023-06-24T11:18:10;4.80;;;2.15;;
47966;SDS011;33733;52.456;13.620;2023-06-24T11:20:37;3.60;;;1.33;;
47966;SDS011;33733;52.456;13.620;2023-06-24T11:23:08;5.25;;;2.28;;
47966;SDS011;33733;52.456;13.620;2023-06-24T11:25:40;4.95;;;2.50;;
47966;SDS011;33733;52.456;13.620;2023-06-24T11:28:14;6.32;;;2.20;;
47966;SDS011;33733;52.456;13.620;2023-06-24T11:30:48;3.80;;;1.50;;
47966;SDS011;33733;52.456;13.620;2023-06-24T11:33:26;4.45;;;2.65;;
47966;SDS011;33733;52.456;13.620;2023-06-24T11:35:53;4.20;;;2.15;;
47966;SDS011;33733;52.456;13.620;2023-06-24T11:38:20;4.18;;;2.55;;
47966;SDS011;33733;52.456;13.620;2023-06-24T11:40:47;3.38;;;1.13;;
47966;SDS011;33733;52.456;13.620;2023-06-24T11:43:14;5.05;;;1.63;;
47966;SDS011;33733;52.456;13.620;2023-06-24T11:45:41;4.20;;;1.65;;
47966;SDS011;33733;52.456;13.620;2023-06-24T11:48:07;4.18;;;1.90;;
47966;SDS011;33733;52.456;13.620;2023-06-24T11:50:35;3.47;;;1.15;;
47966;SDS011;33733;52.456;13.620;2023-06-24T11:53:03;5.15;;;2.55;;
47966;SDS011;33733;52.456;13.620;2023-06-24T11:55:31;5.20;;;3.05;;
47966;SDS011;33733;52.456;13.620;2023-06-24T11:57:58;3.80;;;1.45;;
47966;SDS011;33733;52.456;13.620;2023-06-24T12:00:40;4.63;;;2.08;;
47966;SDS011;33733;52.456;13.620;2023-06-24T12:03:10;3.83;;;1.83;;
47966;SDS011;33733;52.456;13.620;2023-06-24T12:08:11;4.53;;;2.55;;
47966;SDS011;33733;52.456;13.620;2023-06-24T12:10:42;5.18;;;2.65;;
47966;SDS011;33733;52.456;13.620;2023-06-24T12:13:09;5.45;;;2.20;;
47966;SDS011;33733;52.456;13.620;2023-06-24T12:15:36;4.55;;;1.20;;
47966;SDS011;33733;52.456;13.620;2023-06-24T12:18:03;4.55;;;1.95;;
47966;SDS011;33733;52.456;13.620;2023-06-24T12:20:29;3.65;;;1.00;;
47966;SDS011;33733;52.456;13.620;2023-06-24T12:23:01;3.90;;;1.70;;
47966;SDS011;33733;52.456;13.620;2023-06-24T12:27:56;4.25;;;2.10;;
47966;SDS011;33733;52.456;13.620;2023-06-24T12:30:25;5.30;;;2.85;;
47966;SDS011;33733;52.456;13.620;2023-06-24T12:32:52;5.47;;;2.75;;
47966;SDS011;33733;52.456;13.620;2023-06-24T12:35:19;3.92;;;1.50;;
47966;SDS011;33733;52.456;13.620;2023-06-24T12:37:46;4.57;;;2.47;;
47966;SDS011;33733;52.456;13.620;2023-06-24T12:40:14;4.75;;;1.75;;
47966;SDS011;33733;52.456;13.620;2023-06-24T12:42:40;4.38;;;1.65;;
47966;SDS011;33733;52.456;13.620;2023-06-24T12:45:07;3.85;;;1.33;;
47966;SDS011;33733;52.456;13.620;2023-06-24T12:47:34;4.82;;;3.08;;
47966;SDS011;33733;52.456;13.620;2023-06-24T12:50:01;5.18;;;2.22;;
47966;SDS011;33733;52.456;13.620;2023-06-24T12:52:27;5.47;;;2.75;;
47966;SDS011;33733;52.456;13.620;2023-06-24T12:54:54;5.00;;;2.97;;
47966;SDS011;33733;52.456;13.620;2023-06-24T12:57:21;3.58;;;1.65;;
47966;SDS011;33733;52.456;13.620;2023-06-24T12:59:47;4.35;;;2.17;;
47966;SDS011;33733;52.456;13.620;2023-06-24T13:02:14;4.00;;;1.98;;
47966;SDS011;33733;52.456;13.620;2023-06-24T13:04:40;3.80;;;1.20;;
47966;SDS011;33733;52.456;13.620;2023-06-24T13:07:07;2.95;;;1.20;;
47966;SDS011;33733;52.456;13.620;2023-06-24T13:09:36;5.00;;;2.85;;
47966;SDS011;33733;52.456;13.620;2023-06-24T13:12:02;5.05;;;2.50;;
47966;SDS011;33733;52.456;13.620;2023-06-24T13:14:30;5.18;;;1.63;;
47966;SDS011;33733;52.456;13.620;2023-06-24T13:16:56;3.83;;;1.30;;
47966;SDS011;33733;52.456;13.620;2023-06-24T13:19:23;5.13;;;1.45;;
47966;SDS011;33733;52.456;13.620;2023-06-24T13:21:49;3.75;;;1.15;;
47966;SDS011;33733;52.456;13.620;2023-06-24T13:24:16;5.07;;;2.85;;
47966;SDS011;33733;52.456;13.620;2023-06-24T13:26:43;6.05;;;2.45;;
47966;SDS011;33733;52.456;13.620;2023-06-24T13:29:10;4.70;;;1.50;;
47966;SDS011;33733;52.456;13.620;2023-06-24T13:31:37;4.60;;;2.08;;
47966;SDS011;33733;52.456;13.620;2023-06-24T13:34:04;4.38;;;1.90;;
47966;SDS011;33733;52.456;13.620;2023-06-24T13:36:34;4.88;;;2.05;;
47966;SDS011;33733;52.456;13.620;2023-06-24T13:39:02;4.47;;;2.30;;
47966;SDS011;33733;52.456;13.620;2023-06-24T13:41:33;3.90;;;1.55;;
47966;SDS011;33733;52.456;13.620;2023-06-24T13:44:01;6.45;;;2.67;;
47966;SDS011;33733;52.456;13.620;2023-06-24T13:46:28;4.82;;;2.65;;
47966;SDS011;33733;52.456;13.620;2023-06-24T13:48:56;4.65;;;1.33;;
47966;SDS011;33733;52.456;13.620;2023-06-24T13:51:23;4.18;;;1.33;;
47966;SDS011;33733;52.456;13.620;2023-06-24T13:53:51;6.43;;;2.85;;
47966;SDS011;33733;52.456;13.620;2023-06-24T13:56:19;6.75;;;3.47;;
47966;SDS011;33733;52.456;13.620;2023-06-24T13:58:46;5.28;;;2.70;;
47966;SDS011;33733;52.456;13.620;2023-06-24T14:01:13;4.30;;;1.85;;
47966;SDS011;33733;52.456;13.620;2023-06-24T14:03:40;4.90;;;2.63;;
47966;SDS011;33733;52.456;13.620;2023-06-24T14:06:06;5.68;;;2.88;;
47966;SDS011;33733;52.456;13.620;2023-06-24T14:08:33;4.13;;;1.55;;
47966;SDS011;33733;52.456;13.620;2023-06-24T14:11:00;4.57;;;1.63;;
47966;SDS011;33733;52.456;13.620;2023-06-24T14:13:28;4.88;;;1.60;;
47966;SDS011;33733;52.456;13.620;2023-06-24T14:15:55;5.18;;;1.98;;
47966;SDS011;33733;52.456;13.620;2023-06-24T14:18:22;4.90;;;2.83;;
47966;SDS011;33733;52.456;13.620;2023-06-24T14:20:49;4.75;;;1.70;;
47966;SDS011;33733;52.456;13.620;2023-06-24T14:23:15;6.07;;;3.30;;
47966;SDS011;33733;52.456;13.620;2023-06-24T14:25:42;5.45;;;3.42;;
47966;SDS011;33733;52.456;13.620;2023-06-24T14:28:09;4.93;;;2.55;;
47966;SDS011;33733;52.456;13.620;2023-06-24T14:30:35;4.35;;;1.45;;
47966;SDS011;33733;52.456;13.620;2023-06-24T14:33:02;4.80;;;2.15;;
47966;SDS011;33733;52.456;13.620;2023-06-24T14:35:29;5.22;;;2.95;;
47966;SDS011;33733;52.456;13.620;2023-06-24T14:37:56;3.95;;;1.25;;
47966;SDS011;33733;52.456;13.620;2023-06-24T14:40:22;5.22;;;2.63;;
47966;SDS011;33733;52.456;13.620;2023-06-24T14:42:49;4.43;;;1.70;;
47966;SDS011;33733;52.456;13.620;2023-06-24T14:45:16;4.53;;;1.77;;
47966;SDS011;33733;52.456;13.620;2023-06-24T14:47:42;5.15;;;1.85;;
47966;SDS011;33733;52.456;13.620;2023-06-24T14:50:09;5.55;;;3.15;;
47966;SDS011;33733;52.456;13.620;2023-06-24T14:52:36;4.65;;;1.67;;
47966;SDS011;33733;52.456;13.620;2023-06-24T14:55:03;5.30;;;3.00;;
47966;SDS011;33733;52.456;13.620;2023-06-24T14:57:29;5.18;;;1.52;;
47966;SDS011;33733;52.456;13.620;2023-06-24T14:59:56;3.55;;;1.10;;
47966;SDS011;33733;52.456;13.620;2023-06-24T15:02:23;5.13;;;2.58;;
47966;SDS011;33733;52.456;13.620;2023-06-24T15:04:51;5.63;;;3.47;;
47966;SDS011;33733;52.456;13.620;2023-06-24T15:07:18;5.68;;;3.53;;
47966;SDS011;33733;52.456;13.620;2023-06-24T15:09:44;5.20;;;2.90;;